createdAt,value
2023-02-18T00:11:49.623Z,10.3
2023-02-18T00:31:08.735Z,10.2
2023-02-18T00:50:27.832Z,10.2
2023-02-18T01:09:46.278Z,10.1
2023-02-18T01:29:06.006Z,10.1
2023-02-18T01:48:20.292Z,10.1
2023-02-18T02:07:39.238Z,10.2
2023-02-18T02:26:58.784Z,10.2
2023-02-18T02:46:17.835Z,10.3
2023-02-18T03:05:37.849Z,10.3
2023-02-18T03:24:57.286Z,10.1
2023-02-18T03:44:16.136Z,10.2
2023-02-18T04:03:33.224Z,10.1
2023-02-18T04:22:52.779Z,10
2023-02-18T04:42:11.650Z,9.8
2023-02-18T05:01:33.488Z,9.9
2023-02-18T05:20:52.396Z,9.8
2023-02-18T05:40:09.807Z,9.8
2023-02-18T05:59:29.596Z,9.8
2023-02-18T06:18:50.412Z,9.8
2023-02-18T06:38:10.102Z,9.8
2023-02-18T06:57:29.691Z,9.8
2023-02-18T07:16:48.450Z,9.8
2023-02-18T07:36:10.115Z,9.8
2023-02-18T07:55:28.302Z,10
2023-02-18T08:14:46.206Z,10
2023-02-18T08:34:04.740Z,9.9
2023-02-18T08:53:21.612Z,9.5
2023-02-18T09:12:40.846Z,9.5
2023-02-18T09:31:59.565Z,9.2
2023-02-18T09:51:19.226Z,9.4
2023-02-18T10:10:38.789Z,9.3
2023-02-18T10:29:55.470Z,9.5
2023-02-18T10:49:12.913Z,9.3
2023-02-18T11:08:31.978Z,9.3
2023-02-18T11:27:50.938Z,9.2
2023-02-18T11:47:11.105Z,9.4
2023-02-18T12:06:30.373Z,9.4
2023-02-18T12:25:49.898Z,9.5
2023-02-18T12:45:11.034Z,9.6
2023-02-18T13:04:30.277Z,9.7
2023-02-18T13:23:48.805Z,9.6
2023-02-18T13:43:08.738Z,9.6
2023-02-18T14:02:26.703Z,9.6
2023-02-18T14:21:45.662Z,9.6
2023-02-18T14:41:04.174Z,9.6
2023-02-18T15:00:24.749Z,9.7
2023-02-18T15:19:44.326Z,9.7
2023-02-18T15:39:04.360Z,9.8
2023-02-18T15:58:23.162Z,9.7
2023-02-18T16:17:41.701Z,9.7
2023-02-18T16:36:58.499Z,9.7
2023-02-18T16:56:17.021Z,9.8
2023-02-18T17:15:37.865Z,9.9
2023-02-18T17:34:53.880Z,9.8
2023-02-18T17:54:12.257Z,9.8
2023-02-18T18:13:30.864Z,9.8
2023-02-18T18:32:50.461Z,9.8
2023-02-18T18:52:08.700Z,9.7
2023-02-18T19:11:27.326Z,9.7
2023-02-18T19:30:46.888Z,9.7
2023-02-18T19:50:06.354Z,9.7
2023-02-18T20:09:24.803Z,9.8
2023-02-18T20:28:44.567Z,9.8
2023-02-18T20:48:03.680Z,9.7
2023-02-18T21:07:21.983Z,9.7
2023-02-18T21:26:41.554Z,9.8
2023-02-18T21:45:59.949Z,9.8
2023-02-18T22:05:16.417Z,9.7
2023-02-18T22:24:36.061Z,9.7
2023-02-18T22:43:55.018Z,9.7
2023-02-18T23:03:15.351Z,9.7
2023-02-18T23:22:34.926Z,9.6
2023-02-18T23:41:54.571Z,9.7
